sensor_id;sensor_type;location;lat;lon;timestamp;pressure;altitude;pressure_sealevel;temperature;humidity
44441;BME280;30146;52.268;20.944;2023-02-12T00:01:14;101607.48;;;2.85;66.53
44441;BME280;30146;52.268;20.944;2023-02-12T00:03:42;101611.98;;;2.84;66.82
44441;BME280;30146;52.268;20.944;2023-02-12T00:06:11;101608.08;;;2.83;66.49
44441;BME280;30146;52.268;20.944;2023-02-12T00:08:42;101609.95;;;2.83;66.50
44441;BME280;30146;52.268;20.944;2023-02-12T00:11:12;101624.73;;;2.82;66.48
44441;BME280;30146;52.268;20.944;2023-02-12T00:13:40;101626.89;;;2.81;66.18
44441;BME280;30146;52.268;20.944;2023-02-12T00:16:10;101629.73;;;2.80;66.24
44441;BME280;30146;52.268;20.944;2023-02-12T00:18:39;101634.41;;;2.79;66.54
44441;BME280;30146;52.268;20.944;2023-02-12T00:21:07;101645.05;;;2.79;66.57
44441;BME280;30146;52.268;20.944;2023-02-12T00:23:36;101653.58;;;2.77;66.34
44441;BME280;30146;52.268;20.944;2023-02-12T00:26:06;101657.44;;;2.77;66.15
44441;BME280;30146;52.268;20.944;2023-02-12T00:28:34;101667.39;;;2.76;66.45
44441;BME280;30146;52.268;20.944;2023-02-12T00:31:07;101670.85;;;2.75;66.29
44441;BME280;30146;52.268;20.944;2023-02-12T00:33:36;101673.89;;;2.74;66.20
44441;BME280;30146;52.268;20.944;2023-02-12T00:36:06;101670.69;;;2.75;66.21
44441;BME280;30146;52.268;20.944;2023-02-12T00:38:34;101670.35;;;2.74;66.23
44441;BME280;30146;52.268;20.944;2023-02-12T00:41:03;101666.29;;;2.74;66.35
44441;BME280;30146;52.268;20.944;2023-02-12T00:43:31;101663.92;;;2.74;65.91
44441;BME280;30146;52.268;20.944;2023-02-12T00:46:01;101669.27;;;2.73;65.89
44441;BME280;30146;52.268;20.944;2023-02-12T00:48:30;101670.83;;;2.69;65.66
44441;BME280;30146;52.268;20.944;2023-02-12T00:50:58;101676.84;;;2.64;65.63
44441;BME280;30146;52.268;20.944;2023-02-12T00:53:28;101683.30;;;2.62;65.47
44441;BME280;30146;52.268;20.944;2023-02-12T00:55:56;101685.64;;;2.61;65.59
44441;BME280;30146;52.268;20.944;2023-02-12T00:58:25;101692.52;;;2.60;65.72
44441;BME280;30146;52.268;20.944;2023-02-12T01:00:53;101697.52;;;2.59;65.54
44441;BME280;30146;52.268;20.944;2023-02-12T01:03:23;101697.64;;;2.58;65.92
44441;BME280;30146;52.268;20.944;2023-02-12T01:05:52;101699.52;;;2.58;65.61
44441;BME280;30146;52.268;20.944;2023-02-12T01:08:21;101706.23;;;2.57;65.76
44441;BME280;30146;52.268;20.944;2023-02-12T01:10:55;101713.50;;;2.58;65.40
44441;BME280;30146;52.268;20.944;2023-02-12T01:13:24;101716.79;;;2.56;65.44
44441;BME280;30146;52.268;20.944;2023-02-12T01:16:02;101712.89;;;2.51;65.20
44441;BME280;30146;52.268;20.944;2023-02-12T01:18:31;101714.55;;;2.47;65.16
44441;BME280;30146;52.268;20.944;2023-02-12T01:20:59;101716.16;;;2.42;64.78
44441;BME280;30146;52.268;20.944;2023-02-12T01:23:28;101723.80;;;2.39;64.89
44441;BME280;30146;52.268;20.944;2023-02-12T01:25:58;101734.53;;;2.37;64.91
44441;BME280;30146;52.268;20.944;2023-02-12T01:28:26;101744.24;;;2.36;64.84
44441;BME280;30146;52.268;20.944;2023-02-12T01:30:54;101739.81;;;2.35;65.08
44441;BME280;30146;52.268;20.944;2023-02-12T01:33:22;101742.47;;;2.34;65.13
44441;BME280;30146;52.268;20.944;2023-02-12T01:35:51;101746.70;;;2.34;65.00
44441;BME280;30146;52.268;20.944;2023-02-12T01:38:19;101749.89;;;2.34;64.97
44441;BME280;30146;52.268;20.944;2023-02-12T01:40:47;101751.21;;;2.33;64.61
44441;BME280;30146;52.268;20.944;2023-02-12T01:43:15;101754.98;;;2.31;64.57
44441;BME280;30146;52.268;20.944;2023-02-12T01:45:51;101759.14;;;2.29;64.62
44441;BME280;30146;52.268;20.944;2023-02-12T01:48:24;101759.86;;;2.30;65.02
44441;BME280;30146;52.268;20.944;2023-02-12T01:50:55;101759.27;;;2.33;64.93
44441;BME280;30146;52.268;20.944;2023-02-12T01:53:28;101751.91;;;2.34;64.66
44441;BME280;30146;52.268;20.944;2023-02-12T01:56:00;101755.02;;;2.36;64.75
44441;BME280;30146;52.268;20.944;2023-02-12T01:58:33;101761.14;;;2.36;64.60
44441;BME280;30146;52.268;20.944;2023-02-12T02:01:05;101767.28;;;2.38;64.60
44441;BME280;30146;52.268;20.944;2023-02-12T02:03:35;101774.56;;;2.38;64.65
44441;BME280;30146;52.268;20.944;2023-02-12T02:06:08;101779.62;;;2.38;64.34
44441;BME280;30146;52.268;20.944;2023-02-12T02:08:38;101778.58;;;2.38;64.52
44441;BME280;30146;52.268;20.944;2023-02-12T02:11:10;101783.29;;;2.37;64.58
44441;BME280;30146;52.268;20.944;2023-02-12T02:14:01;101791.21;;;2.37;64.45
44441;BME280;30146;52.268;20.944;2023-02-12T02:16:54;101798.10;;;2.36;64.31
44441;BME280;30146;52.268;20.944;2023-02-12T02:19:40;101808.03;;;2.36;64.23
44441;BME280;30146;52.268;20.944;2023-02-12T02:22:20;101811.49;;;2.38;64.45
44441;BME280;30146;52.268;20.944;2023-02-12T02:25:01;101806.72;;;2.40;64.19
44441;BME280;30146;52.268;20.944;2023-02-12T02:27:43;101810.36;;;2.39;64.22
44441;BME280;30146;52.268;20.944;2023-02-12T02:30:36;101820.81;;;2.38;64.11
44441;BME280;30146;52.268;20.944;2023-02-12T02:33:14;101830.66;;;2.40;63.80
44441;BME280;30146;52.268;20.944;2023-02-12T02:35:54;101841.70;;;2.41;63.95
44441;BME280;30146;52.268;20.944;2023-02-12T02:38:32;101838.80;;;2.44;64.22
44441;BME280;30146;52.268;20.944;2023-02-12T02:41:05;101845.34;;;2.47;64.11
44441;BME280;30146;52.268;20.944;2023-02-12T02:43:39;101855.71;;;2.48;63.98
44441;BME280;30146;52.268;20.944;2023-02-12T02:46:12;101854.80;;;2.50;64.14
44441;BME280;30146;52.268;20.944;2023-02-12T02:48:45;101852.52;;;2.53;64.03
44441;BME280;30146;52.268;20.944;2023-02-12T02:51:19;101859.67;;;2.54;63.96
44441;BME280;30146;52.268;20.944;2023-02-12T02:53:52;101865.96;;;2.55;64.23
44441;BME280;30146;52.268;20.944;2023-02-12T02:56:23;101870.99;;;2.54;64.00
44441;BME280;30146;52.268;20.944;2023-02-12T02:58:55;101884.83;;;2.54;63.63
44441;BME280;30146;52.268;20.944;2023-02-12T03:01:29;101894.94;;;2.53;63.68
44441;BME280;30146;52.268;20.944;2023-02-12T03:04:02;101900.84;;;2.53;63.54
44441;BME280;30146;52.268;20.944;2023-02-12T03:06:37;101905.32;;;2.52;63.49
44441;BME280;30146;52.268;20.944;2023-02-12T03:09:14;101913.61;;;2.49;63.18
44441;BME280;30146;52.268;20.944;2023-02-12T03:11:44;101915.71;;;2.46;63.19
44441;BME280;30146;52.268;20.944;2023-02-12T03:14:16;101921.72;;;2.45;63.25
44441;BME280;30146;52.268;20.944;2023-02-12T03:16:51;101932.73;;;2.46;63.14
44441;BME280;30146;52.268;20.944;2023-02-12T03:19:24;101940.64;;;2.45;63.19
44441;BME280;30146;52.268;20.944;2023-02-12T03:21:59;101940.53;;;2.43;62.99
44441;BME280;30146;52.268;20.944;2023-02-12T03:24:32;101944.77;;;2.41;62.99
44441;BME280;30146;52.268;20.944;2023-02-12T03:27:06;101946.39;;;2.39;62.81
44441;BME280;30146;52.268;20.944;2023-02-12T03:29:36;101943.27;;;2.37;62.89
44441;BME280;30146;52.268;20.944;2023-02-12T03:32:16;101947.27;;;2.33;62.77
44441;BME280;30146;52.268;20.944;2023-02-12T03:34:51;101956.41;;;2.30;62.58
44441;BME280;30146;52.268;20.944;2023-02-12T03:37:27;101959.90;;;2.29;62.72
44441;BME280;30146;52.268;20.944;2023-02-12T03:40:02;101966.09;;;2.28;62.51
44441;BME280;30146;52.268;20.944;2023-02-12T03:42:36;101971.45;;;2.27;62.51
44441;BME280;30146;52.268;20.944;2023-02-12T03:45:16;101973.09;;;2.26;62.49
44441;BME280;30146;52.268;20.944;2023-02-12T03:47:51;101981.74;;;2.24;62.35
44441;BME280;30146;52.268;20.944;2023-02-12T03:50:28;101988.84;;;2.21;62.24
44441;BME280;30146;52.268;20.944;2023-02-12T03:53:00;101989.84;;;2.18;62.32
44441;BME280;30146;52.268;20.944;2023-02-12T03:55:28;101997.77;;;2.17;62.35
44441;BME280;30146;52.268;20.944;2023-02-12T03:57:59;102006.66;;;2.16;62.44
44441;BME280;30146;52.268;20.944;2023-02-12T04:00:28;102012.61;;;2.14;62.25
44441;BME280;30146;52.268;20.944;2023-02-12T04:02:57;102018.06;;;2.11;62.15
44441;BME280;30146;52.268;20.944;2023-02-12T04:05:26;102016.11;;;2.09;62.28
44441;BME280;30146;52.268;20.944;2023-02-12T04:07:56;102011.91;;;2.10;62.33
44441;BME280;30146;52.268;20.944;2023-02-12T04:10:28;102016.34;;;2.10;62.36
44441;BME280;30146;52.268;20.944;2023-02-12T04:13:07;102019.16;;;2.10;62.33
44441;BME280;30146;52.268;20.944;2023-02-12T04:15:51;102019.21;;;2.07;61.93
44441;BME280;30146;52.268;20.944;2023-02-12T04:18:27;102019.29;;;2.06;61.95
44441;BME280;30146;52.268;20.944;2023-02-12T04:21:07;102021.17;;;2.03;61.91
44441;BME280;30146;52.268;20.944;2023-02-12T04:23:48;102023.75;;;2.01;62.20
44441;BME280;30146;52.268;20.944;2023-02-12T04:26:23;102020.55;;;2.01;62.18
44441;BME280;30146;52.268;20.944;2023-02-12T04:29:06;102030.80;;;2.03;62.18
44441;BME280;30146;52.268;20.944;2023-02-12T04:31:40;102030.92;;;2.03;62.15
44441;BME280;30146;52.268;20.944;2023-02-12T04:34:17;102030.50;;;2.04;62.39
44441;BME280;30146;52.268;20.944;2023-02-12T04:36:51;102035.89;;;2.04;61.95
44441;BME280;30146;52.268;20.944;2023-02-12T04:39:24;102036.45;;;2.05;61.94
44441;BME280;30146;52.268;20.944;2023-02-12T04:41:54;102033.09;;;2.05;62.21
44441;BME280;30146;52.268;20.944;2023-02-12T04:44:29;102038.51;;;2.06;62.19
44441;BME280;30146;52.268;20.944;2023-02-12T04:46:58;102038.48;;;2.05;61.95
44441;BME280;30146;52.268;20.944;2023-02-12T04:49:27;102042.19;;;2.05;62.00
44441;BME280;30146;52.268;20.944;2023-02-12T04:51:55;102045.58;;;2.05;61.86
44441;BME280;30146;52.268;20.944;2023-02-12T04:54:23;102053.67;;;2.05;61.90
44441;BME280;30146;52.268;20.944;2023-02-12T04:56:51;102056.91;;;2.06;61.98
44441;BME280;30146;52.268;20.944;2023-02-12T04:59:20;102060.26;;;2.06;61.77
44441;BME280;30146;52.268;20.944;2023-02-12T05:01:48;102065.81;;;2.05;61.92
44441;BME280;30146;52.268;20.944;2023-02-12T05:04:17;102069.51;;;2.05;61.86
44441;BME280;30146;52.268;20.944;2023-02-12T05:06:46;102077.81;;;2.06;62.02
44441;BME280;30146;52.268;20.944;2023-02-12T05:09:17;102080.59;;;2.07;61.87
44441;BME280;30146;52.268;20.944;2023-02-12T05:11:45;102084.31;;;2.07;61.75
44441;BME280;30146;52.268;20.944;2023-02-12T05:14:13;102095.31;;;2.08;61.75
44441;BME280;30146;52.268;20.944;2023-02-12T05:16:41;102098.46;;;2.07;61.87
44441;BME280;30146;52.268;20.944;2023-02-12T05:19:10;102106.90;;;2.07;61.87
44441;BME280;30146;52.268;20.944;2023-02-12T05:21:39;102110.62;;;2.07;61.97
44441;BME280;30146;52.268;20.944;2023-02-12T05:24:08;102109.30;;;2.08;61.75
44441;BME280;30146;52.268;20.944;2023-02-12T05:26:36;102115.36;;;2.08;61.71
44441;BME280;30146;52.268;20.944;2023-02-12T05:29:04;102115.52;;;2.07;61.93
44441;BME280;30146;52.268;20.944;2023-02-12T05:31:32;102116.13;;;2.09;61.73
44441;BME280;30146;52.268;20.944;2023-02-12T05:34:01;102115.45;;;2.09;61.78
44441;BME280;30146;52.268;20.944;2023-02-12T05:36:29;102118.33;;;2.09;61.53
44441;BME280;30146;52.268;20.944;2023-02-12T05:38:58;102122.23;;;2.10;61.64
44441;BME280;30146;52.268;20.944;2023-02-12T05:41:27;102129.41;;;2.12;61.63
44441;BME280;30146;52.268;20.944;2023-02-12T05:43:55;102133.00;;;2.10;61.32
44441;BME280;30146;52.268;20.944;2023-02-12T05:46:23;102140.42;;;2.09;61.43
44441;BME280;30146;52.268;20.944;2023-02-12T05:48:51;102147.33;;;2.09;61.55
44441;BME280;30146;52.268;20.944;2023-02-12T05:51:21;102156.06;;;2.08;61.54
44441;BME280;30146;52.268;20.944;2023-02-12T05:53:54;102157.35;;;2.07;61.42
44441;BME280;30146;52.268;20.944;2023-02-12T05:56:25;102160.26;;;2.08;61.48
44441;BME280;30146;52.268;20.944;2023-02-12T05:58:55;102163.98;;;2.08;61.41
44441;BME280;30146;52.268;20.944;2023-02-12T06:01:26;102168.75;;;2.09;61.28
44441;BME280;30146;52.268;20.944;2023-02-12T06:03:55;102171.35;;;2.08;61.29
44441;BME280;30146;52.268;20.944;2023-02-12T06:06:25;102178.95;;;2.10;61.63
44441;BME280;30146;52.268;20.944;2023-02-12T06:08:55;102183.33;;;2.11;61.51
44441;BME280;30146;52.268;20.944;2023-02-12T06:11:24;102189.41;;;2.11;61.51
44441;BME280;30146;52.268;20.944;2023-02-12T06:13:52;102195.47;;;2.10;61.31
44441;BME280;30146;52.268;20.944;2023-02-12T06:16:23;102198.21;;;2.08;61.31
44441;BME280;30146;52.268;20.944;2023-02-12T06:18:52;102206.89;;;2.10;61.38
44441;BME280;30146;52.268;20.944;2023-02-12T06:21:22;102206.14;;;2.11;61.50
44441;BME280;30146;52.268;20.944;2023-02-12T06:23:51;102208.27;;;2.13;61.40
44441;BME280;30146;52.268;20.944;2023-02-12T06:26:20;102210.71;;;2.15;61.41
44441;BME280;30146;52.268;20.944;2023-02-12T06:28:51;102214.16;;;2.16;61.39
44441;BME280;30146;52.268;20.944;2023-02-12T06:31:22;102215.23;;;2.18;61.41
44441;BME280;30146;52.268;20.944;2023-02-12T06:33:51;102217.70;;;2.19;61.46
44441;BME280;30146;52.268;20.944;2023-02-12T06:36:20;102221.65;;;2.20;61.47
44441;BME280;30146;52.268;20.944;2023-02-12T06:38:49;102223.61;;;2.22;61.38
44441;BME280;30146;52.268;20.944;2023-02-12T06:41:18;102224.69;;;2.29;61.48
44441;BME280;30146;52.268;20.944;2023-02-12T06:43:47;102222.38;;;2.72;62.86
44441;BME280;30146;52.268;20.944;2023-02-12T06:46:16;102223.54;;;3.24;62.95
44441;BME280;30146;52.268;20.944;2023-02-12T06:48:44;102223.30;;;3.49;62.44
44441;BME280;30146;52.268;20.944;2023-02-12T06:51:14;102226.80;;;3.90;62.65
44441;BME280;30146;52.268;20.944;2023-02-12T06:53:42;102224.41;;;4.70;63.22
44441;BME280;30146;52.268;20.944;2023-02-12T06:56:12;102223.52;;;5.60;63.90
44441;BME280;30146;52.268;20.944;2023-02-12T06:58:42;102221.61;;;7.07;65.17
44441;BME280;30146;52.268;20.944;2023-02-12T07:01:12;102217.84;;;8.49;64.84
44441;BME280;30146;52.268;20.944;2023-02-12T07:03:41;102219.33;;;9.89;64.63
44441;BME280;30146;52.268;20.944;2023-02-12T07:06:09;102219.13;;;11.19;63.61
44441;BME280;30146;52.268;20.944;2023-02-12T07:08:37;102216.45;;;12.44;62.62
44441;BME280;30146;52.268;20.944;2023-02-12T07:11:06;102216.30;;;13.58;61.20
44441;BME280;30146;52.268;20.944;2023-02-12T07:13:34;102215.72;;;14.57;59.42
44441;BME280;30146;52.268;20.944;2023-02-12T07:16:07;102224.90;;;15.44;57.85
44441;BME280;30146;52.268;20.944;2023-02-12T07:18:36;102230.84;;;16.27;56.34
44441;BME280;30146;52.268;20.944;2023-02-12T07:21:06;102229.55;;;16.95;54.72
44441;BME280;30146;52.268;20.944;2023-02-12T07:23:35;102231.73;;;17.54;52.97
44441;BME280;30146;52.268;20.944;2023-02-12T07:26:05;102229.90;;;18.06;51.61
44441;BME280;30146;52.268;20.944;2023-02-12T07:28:34;102229.23;;;18.62;50.84
44441;BME280;30146;52.268;20.944;2023-02-12T07:31:07;102230.06;;;19.17;50.23
44441;BME280;30146;52.268;20.944;2023-02-12T07:33:36;102232.84;;;19.71;49.01
44441;BME280;30146;52.268;20.944;2023-02-12T07:36:07;102219.08;;;20.12;47.67
44441;BME280;30146;52.268;20.944;2023-02-12T07:38:38;102216.65;;;20.46;46.26
44441;BME280;30146;52.268;20.944;2023-02-12T07:41:13;102217.45;;;20.67;45.23
44441;BME280;30146;52.268;20.944;2023-02-12T07:43:42;102216.01;;;21.00;45.10
44441;BME280;30146;52.268;20.944;2023-02-12T07:46:13;102218.94;;;21.31;44.58
44441;BME280;30146;52.268;20.944;2023-02-12T07:48:43;102227.04;;;21.56;43.94
44441;BME280;30146;52.268;20.944;2023-02-12T07:51:12;102232.05;;;21.85;43.21
44441;BME280;30146;52.268;20.944;2023-02-12T07:53:41;102239.30;;;22.19;42.84
44441;BME280;30146;52.268;20.944;2023-02-12T07:56:11;102240.16;;;22.52;41.99
44441;BME280;30146;52.268;20.944;2023-02-12T07:58:40;102244.57;;;22.73;41.16
44441;BME280;30146;52.268;20.944;2023-02-12T08:01:14;102242.02;;;23.00;40.65
44441;BME280;30146;52.268;20.944;2023-02-12T08:03:43;102243.80;;;23.26;39.85
44441;BME280;30146;52.268;20.944;2023-02-12T08:06:13;102248.92;;;23.40;38.96
44441;BME280;30146;52.268;20.944;2023-02-12T08:08:41;102247.16;;;23.57;38.41
44441;BME280;30146;52.268;20.944;2023-02-12T08:11:11;102247.96;;;23.74;38.10
44441;BME280;30146;52.268;20.944;2023-02-12T08:13:39;102256.28;;;23.76;36.77
44441;BME280;30146;52.268;20.944;2023-02-12T08:16:09;102264.29;;;23.67;36.32
44441;BME280;30146;52.268;20.944;2023-02-12T08:18:38;102268.16;;;23.60;35.89
44441;BME280;30146;52.268;20.944;2023-02-12T08:21:08;102263.98;;;23.60;35.36
44441;BME280;30146;52.268;20.944;2023-02-12T08:23:37;102270.70;;;23.47;34.78
44441;BME280;30146;52.268;20.944;2023-02-12T08:26:08;102269.63;;;23.15;34.14
44441;BME280;30146;52.268;20.944;2023-02-12T08:28:38;102271.92;;;22.91;33.77
44441;BME280;30146;52.268;20.944;2023-02-12T08:31:08;102269.15;;;22.67;33.45
44441;BME280;30146;52.268;20.944;2023-02-12T08:33:37;102268.26;;;22.56;33.49
44441;BME280;30146;52.268;20.944;2023-02-12T08:36:07;102272.45;;;22.61;33.67
44441;BME280;30146;52.268;20.944;2023-02-12T08:38:36;102270.31;;;22.86;34.07
44441;BME280;30146;52.268;20.944;2023-02-12T08:41:06;102270.29;;;22.99;33.55
44441;BME280;30146;52.268;20.944;2023-02-12T08:43:35;102266.11;;;23.11;33.37
44441;BME280;30146;52.268;20.944;2023-02-12T08:46:05;102262.45;;;23.27;33.07
44441;BME280;30146;52.268;20.944;2023-02-12T08:48:34;102260.48;;;23.50;32.99
44441;BME280;30146;52.268;20.944;2023-02-12T08:51:07;102253.67;;;23.65;32.77
44441;BME280;30146;52.268;20.944;2023-02-12T08:53:37;102253.05;;;23.78;32.53
44441;BME280;30146;52.268;20.944;2023-02-12T08:56:07;102248.68;;;24.04;32.66
44441;BME280;30146;52.268;20.944;2023-02-12T08:58:36;102255.88;;;24.23;32.15
44441;BME280;30146;52.268;20.944;2023-02-12T09:01:07;102259.63;;;24.50;32.46
44441;BME280;30146;52.268;20.944;2023-02-12T09:03:36;102272.96;;;24.86;32.52
44441;BME280;30146;52.268;20.944;2023-02-12T09:06:05;102272.90;;;25.27;32.42
44441;BME280;30146;52.268;20.944;2023-02-12T09:08:34;102276.77;;;25.69;32.08
44441;BME280;30146;52.268;20.944;2023-02-12T09:11:05;102277.38;;;26.01;31.53
44441;BME280;30146;52.268;20.944;2023-02-12T09:13:34;102277.45;;;26.35;31.35
44441;BME280;30146;52.268;20.944;2023-02-12T09:16:03;102279.70;;;26.74;31.35
44441;BME280;30146;52.268;20.944;2023-02-12T09:18:31;102279.02;;;26.99;30.81
44441;BME280;30146;52.268;20.944;2023-02-12T09:21:02;102274.64;;;27.18;30.24
44441;BME280;30146;52.268;20.944;2023-02-12T09:23:30;102281.41;;;27.23;29.59
44441;BME280;30146;52.268;20.944;2023-02-12T09:25:58;102287.83;;;27.24;29.52
44441;BME280;30146;52.268;20.944;2023-02-12T09:28:26;102289.80;;;27.23;29.31
44441;BME280;30146;52.268;20.944;2023-02-12T09:30:54;102290.88;;;27.27;28.98
44441;BME280;30146;52.268;20.944;2023-02-12T09:33:22;102299.45;;;27.17;28.63
44441;BME280;30146;52.268;20.944;2023-02-12T09:35:50;102301.10;;;27.15;28.66
44441;BME280;30146;52.268;20.944;2023-02-12T09:38:18;102300.52;;;27.19;28.66
44441;BME280;30146;52.268;20.944;2023-02-12T09:41:04;102303.43;;;27.18;28.44
44441;BME280;30146;52.268;20.944;2023-02-12T09:43:41;102304.38;;;27.13;28.16
44441;BME280;30146;52.268;20.944;2023-02-12T09:46:17;102300.00;;;27.09;27.82
44441;BME280;30146;52.268;20.944;2023-02-12T09:48:55;102304.39;;;26.97;27.50
44441;BME280;30146;52.268;20.944;2023-02-12T09:51:28;102310.31;;;26.53;27.38
44441;BME280;30146;52.268;20.944;2023-02-12T09:54:02;102308.97;;;25.83;27.46
44441;BME280;30146;52.268;20.944;2023-02-12T09:56:34;102306.66;;;25.10;27.72
44441;BME280;30146;52.268;20.944;2023-02-12T09:59:06;102308.84;;;24.56;27.95
44441;BME280;30146;52.268;20.944;2023-02-12T10:01:35;102313.35;;;24.28;28.03
44441;BME280;30146;52.268;20.944;2023-02-12T10:04:04;102316.27;;;24.00;28.64
44441;BME280;30146;52.268;20.944;2023-02-12T10:06:38;102310.86;;;23.46;28.83
44441;BME280;30146;52.268;20.944;2023-02-12T10:09:35;102303.73;;;22.82;28.94
44441;BME280;30146;52.268;20.944;2023-02-12T10:12:14;102305.77;;;22.09;28.92
44441;BME280;30146;52.268;20.944;2023-02-12T10:15:01;102305.06;;;21.38;29.07
44441;BME280;30146;52.268;20.944;2023-02-12T10:17:45;102314.27;;;20.66;29.27
44441;BME280;30146;52.268;20.944;2023-02-12T10:20:26;102316.52;;;20.10;29.76
44441;BME280;30146;52.268;20.944;2023-02-12T10:23:10;102314.02;;;19.60;29.98
44441;BME280;30146;52.268;20.944;2023-02-12T10:25:47;102316.73;;;19.04;30.16
44441;BME280;30146;52.268;20.944;2023-02-12T10:28:24;102316.00;;;18.48;30.12
44441;BME280;30146;52.268;20.944;2023-02-12T10:30:55;102319.55;;;18.01;30.69
44441;BME280;30146;52.268;20.944;2023-02-12T10:33:28;102318.23;;;17.48;30.70
44441;BME280;30146;52.268;20.944;2023-02-12T10:36:13;102315.89;;;17.01;31.23
44441;BME280;30146;52.268;20.944;2023-02-12T10:38:49;102318.11;;;16.58;31.43
44441;BME280;30146;52.268;20.944;2023-02-12T10:41:19;102310.94;;;16.17;31.64
44441;BME280;30146;52.268;20.944;2023-02-12T10:43:48;102314.05;;;15.85;32.12
44441;BME280;30146;52.268;20.944;2023-02-12T10:46:17;102313.84;;;15.57;32.18
44441;BME280;30146;52.268;20.944;2023-02-12T10:48:47;102310.15;;;15.26;32.32
44441;BME280;30146;52.268;20.944;2023-02-12T10:51:35;102312.48;;;14.95;32.46
44441;BME280;30146;52.268;20.944;2023-02-12T10:54:34;102309.23;;;14.64;32.97
44441;BME280;30146;52.268;20.944;2023-02-12T10:57:10;102313.88;;;14.37;33.33
44441;BME280;30146;52.268;20.944;2023-02-12T10:59:39;102313.91;;;14.18;33.67
44441;BME280;30146;52.268;20.944;2023-02-12T11:02:20;102328.05;;;14.00;33.99
44441;BME280;30146;52.268;20.944;2023-02-12T11:04:52;102324.95;;;13.80;34.22
44441;BME280;30146;52.268;20.944;2023-02-12T11:07:21;102319.44;;;13.61;34.29
44441;BME280;30146;52.268;20.944;2023-02-12T11:09:54;102317.79;;;13.34;34.39
44441;BME280;30146;52.268;20.944;2023-02-12T11:12:34;102317.85;;;13.10;34.77
44441;BME280;30146;52.268;20.944;2023-02-12T11:15:15;102321.08;;;12.93;35.15
44441;BME280;30146;52.268;20.944;2023-02-12T11:17:53;102328.00;;;12.71;35.21
44441;BME280;30146;52.268;20.944;2023-02-12T11:20:25;102324.66;;;12.42;35.17
44441;BME280;30146;52.268;20.944;2023-02-12T11:22:57;102328.42;;;12.18;35.25
44441;BME280;30146;52.268;20.944;2023-02-12T11:25:28;102333.95;;;11.99;35.61
44441;BME280;30146;52.268;20.944;2023-02-12T11:28:04;102338.66;;;11.85;36.14
44441;BME280;30146;52.268;20.944;2023-02-12T11:30:33;102332.83;;;11.75;36.29
44441;BME280;30146;52.268;20.944;2023-02-12T11:33:23;102328.72;;;11.66;36.46
44441;BME280;30146;52.268;20.944;2023-02-12T11:35:53;102321.55;;;11.57;36.65
44441;BME280;30146;52.268;20.944;2023-02-12T11:38:29;102314.53;;;11.48;36.79
44441;BME280;30146;52.268;20.944;2023-02-12T11:41:02;102308.63;;;11.35;36.74
44441;BME280;30146;52.268;20.944;2023-02-12T11:43:33;102305.87;;;11.16;36.75
44441;BME280;30146;52.268;20.944;2023-02-12T11:46:05;102307.21;;;10.97;37.21
44441;BME280;30146;52.268;20.944;2023-02-12T11:48:38;102303.19;;;10.85;37.58
44441;BME280;30146;52.268;20.944;2023-02-12T11:51:18;102300.95;;;10.76;38.04
44441;BME280;30146;52.268;20.944;2023-02-12T11:53:50;102291.15;;;10.66;38.09
44441;BME280;30146;52.268;20.944;2023-02-12T11:56:20;102300.05;;;10.58;38.34
44441;BME280;30146;52.268;20.944;2023-02-12T11:58:50;102302.61;;;10.50;38.37
44441;BME280;30146;52.268;20.944;2023-02-12T12:01:24;102301.72;;;10.40;38.32
44441;BME280;30146;52.268;20.944;2023-02-12T12:03:59;102299.70;;;10.28;38.53
44441;BME280;30146;52.268;20.944;2023-02-12T12:06:36;102302.68;;;10.16;38.57
44441;BME280;30146;52.268;20.944;2023-02-12T12:09:16;102306.38;;;10.00;38.42
44441;BME280;30146;52.268;20.944;2023-02-12T12:11:56;102312.37;;;9.87;38.80
44441;BME280;30146;52.268;20.944;2023-02-12T12:14:28;102304.48;;;9.78;39.04
44441;BME280;30146;52.268;20.944;2023-02-12T12:16:59;102301.09;;;9.73;39.08
44441;BME280;30146;52.268;20.944;2023-02-12T12:19:54;102297.14;;;9.65;39.45
44441;BME280;30146;52.268;20.944;2023-02-12T12:22:32;102285.20;;;9.52;39.45
44441;BME280;30146;52.268;20.944;2023-02-12T12:25:14;102277.63;;;9.43;39.61
44441;BME280;30146;52.268;20.944;2023-02-12T12:28:04;102275.58;;;9.30;39.61
44441;BME280;30146;52.268;20.944;2023-02-12T12:30:56;102280.80;;;9.15;39.76
44441;BME280;30146;52.268;20.944;2023-02-12T12:33:36;102286.10;;;8.97;39.73
44441;BME280;30146;52.268;20.944;2023-02-12T12:36:32;102282.84;;;8.79;39.73
44441;BME280;30146;52.268;20.944;2023-02-12T12:39:14;102284.46;;;8.64;40.09
44441;BME280;30146;52.268;20.944;2023-02-12T12:42:16;102283.58;;;8.52;40.33
44441;BME280;30146;52.268;20.944;2023-02-12T12:45:02;102280.66;;;8.35;40.33
44441;BME280;30146;52.268;20.944;2023-02-12T12:47:45;102280.56;;;8.27;40.89
44441;BME280;30146;52.268;20.944;2023-02-12T12:50:27;102278.98;;;8.19;41.00
44441;BME280;30146;52.268;20.944;2023-02-12T12:53:10;102281.71;;;8.09;41.33
44441;BME280;30146;52.268;20.944;2023-02-12T12:55:56;102281.48;;;8.02;41.50
44441;BME280;30146;52.268;20.944;2023-02-12T12:58:40;102277.35;;;7.95;41.73
44441;BME280;30146;52.268;20.944;2023-02-12T13:04:43;102271.27;;;7.75;41.85
44441;BME280;30146;52.268;20.944;2023-02-12T13:07:28;102272.84;;;7.61;42.07
44441;BME280;30146;52.268;20.944;2023-02-12T13:10:27;102270.29;;;7.51;42.30
44441;BME280;30146;52.268;20.944;2023-02-12T13:13:14;102265.95;;;7.44;42.65
44441;BME280;30146;52.268;20.944;2023-02-12T13:15:51;102264.65;;;7.41;42.86
44441;BME280;30146;52.268;20.944;2023-02-12T13:18:33;102264.41;;;7.34;43.05